KLRU/LRU METAR and TAF weather

Enter ICAO airport designator
Station Type Date Time Source
KLRU METAR 2019/06/26 17:55 UTC NOAA

KLRU 261755Z AUTO 16013KT 10SM CLR 33/06 A3013 RMK AO2 T03310055 10331 20216


Station Type Date Time Source
KLRU Decoded METAR 2019/06/26 17:55 UTC NOAA

Las Cruces, Las Cruces International Airport, NM, United States (KLRU) 32-17-22N 106-55-19W
Jun 26, 2019 - 01:55 PM EDT / 2019.06.26 1755 UTC
Wind: from the SSE (160 degrees) at 15 MPH (13 KT):0
Visibility: 10 mile(s):0
Sky conditions: clear
Temperature: 91.6 F (33.1 C)
Dew Point: 41.9 F (5.5 C)
Relative Humidity: 17%
Pressure (altimeter): 30.13 in. Hg (1020 hPa)
ob: KLRU 261755Z AUTO 16013KT 10SM CLR 33/06 A3013 RMK AO2 T03310055 10331 20216
cycle: 18

Station Type Date Time Source
KLRU TAF 2019/06/26 18:24 UTC NOAA

TAF KLRU 261722Z 2618/2718 18011KT P6SM FEW100 SCT250
FM261900 20011G19KT P6SM SCT100 SCT250
FM270300 14008G16KT P6SM FEW100
FM271200 12006KT P6SM SKC

Example: see airport list